Terminal Aerodrome Forecast
Issued by NWS

Home | Current Version | Previous Version | Text Only | Print | Product List | Glossary On
Versions: 1 2 3 4 5 6 7 8 9 10 11 12 13 14 15 16 17 18 19
000
FTUS45 KTWC 291132
TAFOLS
TAF
KOLS 291132Z 2912/3012 VRB03KT P6SM SCT100 BKN130
     FM291900 29009KT P6SM VCTS FEW050 SCT070CB BKN110
     FM300000 04005KT P6SM VCSH FEW060 SCT080 OVC120
     FM300500 12005KT P6SM SCT090 BKN150=

USA.gov is the U.S. government's official web portal to all federal, state and local government web resources and services.